sensor_id;sensor_type;location;lat;lon;timestamp;P1;durP1;ratioP1;P2;durP2;ratioP2
20557;SDS011;10437;48.156;11.530;2023-04-30T00:00:23;6.22;;;2.97;;
20557;SDS011;10437;48.156;11.530;2023-04-30T00:02:50;7.10;;;3.03;;
20557;SDS011;10437;48.156;11.530;2023-04-30T00:05:19;7.03;;;3.47;;
20557;SDS011;10437;48.156;11.530;2023-04-30T00:07:45;5.85;;;3.70;;
20557;SDS011;10437;48.156;11.530;2023-04-30T00:10:13;6.43;;;3.40;;
20557;SDS011;10437;48.156;11.530;2023-04-30T00:12:40;5.90;;;3.45;;
20557;SDS011;10437;48.156;11.530;2023-04-30T00:15:07;4.72;;;3.08;;
20557;SDS011;10437;48.156;11.530;2023-04-30T00:17:35;7.82;;;3.80;;
20557;SDS011;10437;48.156;11.530;2023-04-30T00:20:03;6.97;;;3.38;;
20557;SDS011;10437;48.156;11.530;2023-04-30T00:22:32;7.65;;;3.78;;
20557;SDS011;10437;48.156;11.530;2023-04-30T00:24:59;5.53;;;3.40;;
20557;SDS011;10437;48.156;11.530;2023-04-30T00:27:26;7.57;;;3.83;;
20557;SDS011;10437;48.156;11.530;2023-04-30T00:29:53;5.32;;;3.40;;
20557;SDS011;10437;48.156;11.530;2023-04-30T00:32:20;4.85;;;3.03;;
20557;SDS011;10437;48.156;11.530;2023-04-30T00:34:47;5.38;;;3.58;;
20557;SDS011;10437;48.156;11.530;2023-04-30T00:37:14;6.65;;;3.70;;
20557;SDS011;10437;48.156;11.530;2023-04-30T00:39:43;6.07;;;3.70;;
20557;SDS011;10437;48.156;11.530;2023-04-30T00:42:10;5.03;;;3.20;;
20557;SDS011;10437;48.156;11.530;2023-04-30T00:44:37;6.57;;;3.30;;
20557;SDS011;10437;48.156;11.530;2023-04-30T00:47:04;6.68;;;3.55;;
20557;SDS011;10437;48.156;11.530;2023-04-30T00:49:31;8.20;;;3.78;;
20557;SDS011;10437;48.156;11.530;2023-04-30T00:51:58;8.57;;;3.58;;
20557;SDS011;10437;48.156;11.530;2023-04-30T00:54:25;5.10;;;3.47;;
20557;SDS011;10437;48.156;11.530;2023-04-30T00:56:54;6.38;;;3.83;;
20557;SDS011;10437;48.156;11.530;2023-04-30T00:59:21;8.35;;;3.95;;
20557;SDS011;10437;48.156;11.530;2023-04-30T01:01:48;6.60;;;3.92;;
20557;SDS011;10437;48.156;11.530;2023-04-30T01:04:16;6.85;;;3.97;;
20557;SDS011;10437;48.156;11.530;2023-04-30T01:06:43;6.88;;;3.80;;
20557;SDS011;10437;48.156;11.530;2023-04-30T01:09:10;6.78;;;3.75;;
20557;SDS011;10437;48.156;11.530;2023-04-30T01:11:39;6.93;;;4.18;;
20557;SDS011;10437;48.156;11.530;2023-04-30T01:14:19;6.78;;;4.03;;
20557;SDS011;10437;48.156;11.530;2023-04-30T01:16:51;6.38;;;3.90;;
20557;SDS011;10437;48.156;11.530;2023-04-30T01:19:33;6.78;;;3.70;;
20557;SDS011;10437;48.156;11.530;2023-04-30T01:22:03;7.50;;;4.13;;
20557;SDS011;10437;48.156;11.530;2023-04-30T01:24:38;6.55;;;3.72;;
20557;SDS011;10437;48.156;11.530;2023-04-30T01:27:12;6.80;;;3.83;;
20557;SDS011;10437;48.156;11.530;2023-04-30T01:29:50;7.05;;;4.10;;
20557;SDS011;10437;48.156;11.530;2023-04-30T01:32:19;7.05;;;4.32;;
20557;SDS011;10437;48.156;11.530;2023-04-30T01:34:47;8.15;;;3.90;;
20557;SDS011;10437;48.156;11.530;2023-04-30T01:37:15;7.00;;;4.00;;
20557;SDS011;10437;48.156;11.530;2023-04-30T01:39:55;7.45;;;4.13;;
20557;SDS011;10437;48.156;11.530;2023-04-30T01:42:29;5.97;;;3.50;;
20557;SDS011;10437;48.156;11.530;2023-04-30T01:45:13;7.13;;;4.28;;
20557;SDS011;10437;48.156;11.530;2023-04-30T01:47:45;6.03;;;3.47;;
20557;SDS011;10437;48.156;11.530;2023-04-30T01:50:16;8.02;;;4.40;;
20557;SDS011;10437;48.156;11.530;2023-04-30T01:52:48;8.30;;;4.00;;
20557;SDS011;10437;48.156;11.530;2023-04-30T01:55:17;7.47;;;4.20;;
20557;SDS011;10437;48.156;11.530;2023-04-30T01:57:48;6.45;;;4.00;;
20557;SDS011;10437;48.156;11.530;2023-04-30T02:00:19;8.48;;;4.28;;
20557;SDS011;10437;48.156;11.530;2023-04-30T02:02:46;7.38;;;4.47;;
20557;SDS011;10437;48.156;11.530;2023-04-30T02:05:13;7.38;;;4.55;;
20557;SDS011;10437;48.156;11.530;2023-04-30T02:07:41;7.85;;;4.57;;
20557;SDS011;10437;48.156;11.530;2023-04-30T02:10:09;7.95;;;4.55;;
20557;SDS011;10437;48.156;11.530;2023-04-30T02:12:37;8.45;;;4.18;;
20557;SDS011;10437;48.156;11.530;2023-04-30T02:15:04;7.65;;;4.07;;
20557;SDS011;10437;48.156;11.530;2023-04-30T02:17:33;10.40;;;4.50;;
20557;SDS011;10437;48.156;11.530;2023-04-30T02:20:00;8.60;;;4.72;;
20557;SDS011;10437;48.156;11.530;2023-04-30T02:22:28;8.18;;;4.55;;
20557;SDS011;10437;48.156;11.530;2023-04-30T02:24:55;9.73;;;4.57;;
20557;SDS011;10437;48.156;11.530;2023-04-30T02:27:23;8.27;;;4.30;;
20557;SDS011;10437;48.156;11.530;2023-04-30T02:29:51;7.07;;;4.50;;
20557;SDS011;10437;48.156;11.530;2023-04-30T02:32:18;8.32;;;4.93;;
20557;SDS011;10437;48.156;11.530;2023-04-30T02:34:47;9.57;;;4.72;;
20557;SDS011;10437;48.156;11.530;2023-04-30T02:37:13;9.15;;;5.05;;
20557;SDS011;10437;48.156;11.530;2023-04-30T02:39:41;9.52;;;4.45;;
20557;SDS011;10437;48.156;11.530;2023-04-30T02:42:08;7.75;;;4.15;;
20557;SDS011;10437;48.156;11.530;2023-04-30T02:44:36;10.63;;;4.75;;
20557;SDS011;10437;48.156;11.530;2023-04-30T02:47:03;7.50;;;4.53;;
20557;SDS011;10437;48.156;11.530;2023-04-30T02:49:30;7.82;;;4.50;;
20557;SDS011;10437;48.156;11.530;2023-04-30T02:51:59;8.35;;;4.70;;
20557;SDS011;10437;48.156;11.530;2023-04-30T02:54:25;9.10;;;4.70;;
20557;SDS011;10437;48.156;11.530;2023-04-30T02:56:53;8.05;;;5.10;;
20557;SDS011;10437;48.156;11.530;2023-04-30T02:59:20;7.95;;;4.63;;
20557;SDS011;10437;48.156;11.530;2023-04-30T03:01:47;8.15;;;4.68;;
20557;SDS011;10437;48.156;11.530;2023-04-30T03:04:14;8.07;;;5.10;;
20557;SDS011;10437;48.156;11.530;2023-04-30T03:06:41;8.00;;;4.95;;
20557;SDS011;10437;48.156;11.530;2023-04-30T03:09:09;10.55;;;5.25;;
20557;SDS011;10437;48.156;11.530;2023-04-30T03:11:37;10.18;;;5.50;;
20557;SDS011;10437;48.156;11.530;2023-04-30T03:14:04;8.52;;;4.95;;
20557;SDS011;10437;48.156;11.530;2023-04-30T03:16:31;7.30;;;4.60;;
20557;SDS011;10437;48.156;11.530;2023-04-30T03:18:58;10.75;;;5.13;;
20557;SDS011;10437;48.156;11.530;2023-04-30T03:21:25;9.25;;;5.13;;
20557;SDS011;10437;48.156;11.530;2023-04-30T03:23:52;10.73;;;5.03;;
20557;SDS011;10437;48.156;11.530;2023-04-30T03:26:21;11.35;;;5.15;;
20557;SDS011;10437;48.156;11.530;2023-04-30T03:28:47;9.00;;;5.03;;
20557;SDS011;10437;48.156;11.530;2023-04-30T03:31:14;10.43;;;5.38;;
20557;SDS011;10437;48.156;11.530;2023-04-30T03:33:42;12.05;;;5.68;;
20557;SDS011;10437;48.156;11.530;2023-04-30T03:36:09;11.30;;;5.80;;
20557;SDS011;10437;48.156;11.530;2023-04-30T03:38:37;9.52;;;5.45;;
20557;SDS011;10437;48.156;11.530;2023-04-30T03:41:04;8.63;;;4.97;;
20557;SDS011;10437;48.156;11.530;2023-04-30T03:43:32;8.00;;;4.85;;
20557;SDS011;10437;48.156;11.530;2023-04-30T03:45:59;9.65;;;5.60;;
20557;SDS011;10437;48.156;11.530;2023-04-30T03:48:27;10.75;;;5.93;;
20557;SDS011;10437;48.156;11.530;2023-04-30T03:50:54;10.30;;;5.47;;
20557;SDS011;10437;48.156;11.530;2023-04-30T03:53:21;11.80;;;5.90;;
20557;SDS011;10437;48.156;11.530;2023-04-30T03:55:49;10.48;;;5.97;;
20557;SDS011;10437;48.156;11.530;2023-04-30T03:58:17;11.38;;;5.80;;
20557;SDS011;10437;48.156;11.530;2023-04-30T04:00:45;12.18;;;5.68;;
20557;SDS011;10437;48.156;11.530;2023-04-30T04:03:12;10.35;;;5.47;;
20557;SDS011;10437;48.156;11.530;2023-04-30T04:05:39;9.77;;;6.10;;
20557;SDS011;10437;48.156;11.530;2023-04-30T04:08:07;11.63;;;6.20;;
20557;SDS011;10437;48.156;11.530;2023-04-30T04:10:34;9.43;;;5.75;;
20557;SDS011;10437;48.156;11.530;2023-04-30T04:13:02;10.50;;;5.63;;
20557;SDS011;10437;48.156;11.530;2023-04-30T04:15:29;12.20;;;6.25;;
20557;SDS011;10437;48.156;11.530;2023-04-30T04:17:58;10.50;;;6.20;;
20557;SDS011;10437;48.156;11.530;2023-04-30T04:20:25;8.48;;;5.55;;
20557;SDS011;10437;48.156;11.530;2023-04-30T04:22:53;9.65;;;5.57;;
20557;SDS011;10437;48.156;11.530;2023-04-30T04:25:21;9.30;;;5.90;;
20557;SDS011;10437;48.156;11.530;2023-04-30T04:27:49;9.93;;;5.65;;
20557;SDS011;10437;48.156;11.530;2023-04-30T04:30:16;13.98;;;5.82;;
20557;SDS011;10437;48.156;11.530;2023-04-30T04:32:43;10.70;;;6.00;;
20557;SDS011;10437;48.156;11.530;2023-04-30T04:35:15;16.15;;;6.55;;
20557;SDS011;10437;48.156;11.530;2023-04-30T04:37:42;9.93;;;5.80;;
20557;SDS011;10437;48.156;11.530;2023-04-30T04:40:10;10.95;;;5.75;;
20557;SDS011;10437;48.156;11.530;2023-04-30T04:42:38;11.48;;;5.60;;
20557;SDS011;10437;48.156;11.530;2023-04-30T04:45:06;8.60;;;5.47;;
20557;SDS011;10437;48.156;11.530;2023-04-30T04:47:34;10.82;;;6.18;;
20557;SDS011;10437;48.156;11.530;2023-04-30T04:50:01;11.50;;;5.75;;
20557;SDS011;10437;48.156;11.530;2023-04-30T04:52:30;9.30;;;5.78;;
20557;SDS011;10437;48.156;11.530;2023-04-30T04:54:57;10.68;;;5.97;;
20557;SDS011;10437;48.156;11.530;2023-04-30T04:57:24;9.00;;;5.65;;
20557;SDS011;10437;48.156;11.530;2023-04-30T04:59:51;11.23;;;5.78;;
20557;SDS011;10437;48.156;11.530;2023-04-30T05:02:18;11.52;;;5.45;;
20557;SDS011;10437;48.156;11.530;2023-04-30T05:04:47;11.65;;;6.00;;
20557;SDS011;10437;48.156;11.530;2023-04-30T05:07:15;9.32;;;5.47;;
20557;SDS011;10437;48.156;11.530;2023-04-30T05:09:44;10.75;;;6.07;;
20557;SDS011;10437;48.156;11.530;2023-04-30T05:12:11;9.32;;;5.65;;
20557;SDS011;10437;48.156;11.530;2023-04-30T05:14:38;10.85;;;6.20;;
20557;SDS011;10437;48.156;11.530;2023-04-30T05:17:06;10.15;;;6.43;;
20557;SDS011;10437;48.156;11.530;2023-04-30T05:19:34;9.25;;;6.00;;
20557;SDS011;10437;48.156;11.530;2023-04-30T05:22:01;9.80;;;5.63;;
20557;SDS011;10437;48.156;11.530;2023-04-30T05:24:28;11.93;;;5.70;;
20557;SDS011;10437;48.156;11.530;2023-04-30T05:26:57;9.15;;;5.88;;
20557;SDS011;10437;48.156;11.530;2023-04-30T05:29:23;8.70;;;5.55;;
20557;SDS011;10437;48.156;11.530;2023-04-30T05:31:50;10.23;;;6.20;;
20557;SDS011;10437;48.156;11.530;2023-04-30T05:34:18;9.35;;;5.82;;
20557;SDS011;10437;48.156;11.530;2023-04-30T05:36:45;8.88;;;5.82;;
20557;SDS011;10437;48.156;11.530;2023-04-30T05:39:12;9.98;;;6.13;;
20557;SDS011;10437;48.156;11.530;2023-04-30T05:41:39;8.43;;;5.47;;
20557;SDS011;10437;48.156;11.530;2023-04-30T05:44:08;8.75;;;6.05;;
20557;SDS011;10437;48.156;11.530;2023-04-30T05:46:35;14.82;;;6.18;;
20557;SDS011;10437;48.156;11.530;2023-04-30T05:49:02;12.27;;;6.50;;
20557;SDS011;10437;48.156;11.530;2023-04-30T05:51:29;8.98;;;5.65;;
20557;SDS011;10437;48.156;11.530;2023-04-30T05:53:57;12.02;;;6.13;;
20557;SDS011;10437;48.156;11.530;2023-04-30T05:56:24;9.65;;;6.07;;
20557;SDS011;10437;48.156;11.530;2023-04-30T05:58:51;9.80;;;6.05;;
20557;SDS011;10437;48.156;11.530;2023-04-30T06:01:20;9.18;;;6.03;;
20557;SDS011;10437;48.156;11.530;2023-04-30T06:03:47;9.85;;;5.90;;
20557;SDS011;10437;48.156;11.530;2023-04-30T06:06:14;10.18;;;5.75;;
20557;SDS011;10437;48.156;11.530;2023-04-30T06:08:41;8.90;;;5.65;;
20557;SDS011;10437;48.156;11.530;2023-04-30T06:11:10;9.77;;;5.82;;
20557;SDS011;10437;48.156;11.530;2023-04-30T06:13:37;9.07;;;5.70;;
20557;SDS011;10437;48.156;11.530;2023-04-30T06:16:05;9.38;;;5.50;;
20557;SDS011;10437;48.156;11.530;2023-04-30T06:18:34;8.48;;;5.25;;
20557;SDS011;10437;48.156;11.530;2023-04-30T06:21:01;10.48;;;5.80;;
20557;SDS011;10437;48.156;11.530;2023-04-30T06:23:28;9.20;;;5.75;;
20557;SDS011;10437;48.156;11.530;2023-04-30T06:25:55;11.13;;;6.13;;
20557;SDS011;10437;48.156;11.530;2023-04-30T06:28:22;9.68;;;5.80;;
20557;SDS011;10437;48.156;11.530;2023-04-30T06:30:49;9.98;;;6.00;;
20557;SDS011;10437;48.156;11.530;2023-04-30T06:33:18;9.70;;;5.78;;
20557;SDS011;10437;48.156;11.530;2023-04-30T06:35:46;9.27;;;5.53;;
20557;SDS011;10437;48.156;11.530;2023-04-30T06:38:14;9.75;;;5.72;;
20557;SDS011;10437;48.156;11.530;2023-04-30T06:40:43;8.63;;;5.40;;
20557;SDS011;10437;48.156;11.530;2023-04-30T06:43:10;8.98;;;4.95;;
20557;SDS011;10437;48.156;11.530;2023-04-30T06:45:37;7.45;;;4.95;;
20557;SDS011;10437;48.156;11.530;2023-04-30T06:48:05;8.93;;;5.63;;
20557;SDS011;10437;48.156;11.530;2023-04-30T06:50:32;9.98;;;5.60;;
20557;SDS011;10437;48.156;11.530;2023-04-30T06:53:00;6.38;;;4.53;;
20557;SDS011;10437;48.156;11.530;2023-04-30T06:55:27;8.38;;;5.30;;
20557;SDS011;10437;48.156;11.530;2023-04-30T06:57:54;7.85;;;5.20;;
20557;SDS011;10437;48.156;11.530;2023-04-30T07:00:22;7.68;;;5.03;;
20557;SDS011;10437;48.156;11.530;2023-04-30T07:02:49;9.18;;;5.00;;
20557;SDS011;10437;48.156;11.530;2023-04-30T07:05:16;9.20;;;4.93;;
20557;SDS011;10437;48.156;11.530;2023-04-30T07:07:43;9.85;;;5.40;;
20557;SDS011;10437;48.156;11.530;2023-04-30T07:10:12;8.98;;;4.90;;
20557;SDS011;10437;48.156;11.530;2023-04-30T07:12:39;9.95;;;4.90;;
20557;SDS011;10437;48.156;11.530;2023-04-30T07:15:06;9.50;;;5.05;;
20557;SDS011;10437;48.156;11.530;2023-04-30T07:17:34;8.25;;;5.18;;
20557;SDS011;10437;48.156;11.530;2023-04-30T07:20:01;7.20;;;4.88;;
20557;SDS011;10437;48.156;11.530;2023-04-30T07:22:29;9.27;;;5.07;;
20557;SDS011;10437;48.156;11.530;2023-04-30T07:24:56;7.85;;;5.30;;
20557;SDS011;10437;48.156;11.530;2023-04-30T07:27:26;6.25;;;4.35;;
20557;SDS011;10437;48.156;11.530;2023-04-30T07:29:53;6.75;;;4.43;;
20557;SDS011;10437;48.156;11.530;2023-04-30T07:32:20;6.53;;;4.70;;
20557;SDS011;10437;48.156;11.530;2023-04-30T07:34:51;6.75;;;4.50;;
20557;SDS011;10437;48.156;11.530;2023-04-30T07:37:18;8.15;;;4.88;;
20557;SDS011;10437;48.156;11.530;2023-04-30T07:39:45;8.02;;;4.70;;
20557;SDS011;10437;48.156;11.530;2023-04-30T07:42:13;7.28;;;4.78;;
20557;SDS011;10437;48.156;11.530;2023-04-30T07:44:41;7.07;;;4.50;;
20557;SDS011;10437;48.156;11.530;2023-04-30T07:47:08;7.03;;;4.38;;
20557;SDS011;10437;48.156;11.530;2023-04-30T07:49:35;5.95;;;4.65;;
20557;SDS011;10437;48.156;11.530;2023-04-30T07:52:02;6.50;;;4.63;;
20557;SDS011;10437;48.156;11.530;2023-04-30T07:54:30;8.68;;;4.82;;
20557;SDS011;10437;48.156;11.530;2023-04-30T07:57:00;6.65;;;4.40;;
20557;SDS011;10437;48.156;11.530;2023-04-30T07:59:28;7.47;;;4.65;;
20557;SDS011;10437;48.156;11.530;2023-04-30T08:01:57;7.75;;;4.57;;
20557;SDS011;10437;48.156;11.530;2023-04-30T08:04:24;7.13;;;4.68;;
20557;SDS011;10437;48.156;11.530;2023-04-30T08:06:51;6.30;;;4.38;;
20557;SDS011;10437;48.156;11.530;2023-04-30T08:09:18;8.00;;;4.90;;
20557;SDS011;10437;48.156;11.530;2023-04-30T08:11:45;8.85;;;5.30;;
20557;SDS011;10437;48.156;11.530;2023-04-30T08:14:12;8.43;;;4.70;;
20557;SDS011;10437;48.156;11.530;2023-04-30T08:16:39;6.57;;;4.75;;
20557;SDS011;10437;48.156;11.530;2023-04-30T08:19:08;7.85;;;5.60;;
20557;SDS011;10437;48.156;11.530;2023-04-30T08:21:35;8.40;;;5.22;;
20557;SDS011;10437;48.156;11.530;2023-04-30T08:24:02;8.20;;;5.95;;
20557;SDS011;10437;48.156;11.530;2023-04-30T08:26:29;7.50;;;5.65;;
20557;SDS011;10437;48.156;11.530;2023-04-30T08:28:56;8.40;;;5.85;;
20557;SDS011;10437;48.156;11.530;2023-04-30T08:31:23;6.55;;;5.30;;
20557;SDS011;10437;48.156;11.530;2023-04-30T08:33:51;7.07;;;5.50;;
20557;SDS011;10437;48.156;11.530;2023-04-30T08:36:19;7.18;;;5.05;;
20557;SDS011;10437;48.156;11.530;2023-04-30T08:38:46;9.00;;;6.15;;
20557;SDS011;10437;48.156;11.530;2023-04-30T08:41:13;7.53;;;5.63;;
20557;SDS011;10437;48.156;11.530;2023-04-30T08:43:41;7.25;;;5.72;;
20557;SDS011;10437;48.156;11.530;2023-04-30T08:46:09;8.02;;;5.78;;
20557;SDS011;10437;48.156;11.530;2023-04-30T08:48:38;6.78;;;5.10;;
20557;SDS011;10437;48.156;11.530;2023-04-30T08:51:06;7.78;;;4.88;;
20557;SDS011;10437;48.156;11.530;2023-04-30T08:53:35;8.40;;;4.63;;
20557;SDS011;10437;48.156;11.530;2023-04-30T08:56:03;7.40;;;4.45;;
20557;SDS011;10437;48.156;11.530;2023-04-30T08:58:30;6.18;;;4.60;;
20557;SDS011;10437;48.156;11.530;2023-04-30T09:00:58;7.10;;;4.53;;
20557;SDS011;10437;48.156;11.530;2023-04-30T09:03:25;7.22;;;4.25;;
20557;SDS011;10437;48.156;11.530;2023-04-30T09:05:53;5.57;;;3.80;;
20557;SDS011;10437;48.156;11.530;2023-04-30T09:11:18;4.65;;;3.50;;
20557;SDS011;10437;48.156;11.530;2023-04-30T09:13:48;5.32;;;3.65;;
20557;SDS011;10437;48.156;11.530;2023-04-30T09:16:16;5.72;;;3.70;;
20557;SDS011;10437;48.156;11.530;2023-04-30T09:18:43;6.03;;;3.70;;
20557;SDS011;10437;48.156;11.530;2023-04-30T09:21:11;4.90;;;3.53;;
20557;SDS011;10437;48.156;11.530;2023-04-30T09:23:52;8.05;;;4.47;;
20557;SDS011;10437;48.156;11.530;2023-04-30T09:26:21;5.20;;;3.85;;
20557;SDS011;10437;48.156;11.530;2023-04-30T09:28:55;5.93;;;3.83;;
20557;SDS011;10437;48.156;11.530;2023-04-30T09:31:23;7.97;;;3.92;;
20557;SDS011;10437;48.156;11.530;2023-04-30T09:33:51;6.05;;;3.65;;
20557;SDS011;10437;48.156;11.530;2023-04-30T09:36:18;4.60;;;3.20;;
20557;SDS011;10437;48.156;11.530;2023-04-30T09:38:45;4.38;;;3.17;;
20557;SDS011;10437;48.156;11.530;2023-04-30T09:41:24;5.32;;;3.55;;
20557;SDS011;10437;48.156;11.530;2023-04-30T09:43:52;5.35;;;3.55;;
20557;SDS011;10437;48.156;11.530;2023-04-30T09:46:20;4.13;;;3.20;;
20557;SDS011;10437;48.156;11.530;2023-04-30T09:48:55;13.57;;;4.20;;
20557;SDS011;10437;48.156;11.530;2023-04-30T09:51:23;6.30;;;3.70;;
20557;SDS011;10437;48.156;11.530;2023-04-30T09:53:51;4.90;;;3.58;;
20557;SDS011;10437;48.156;11.530;2023-04-30T09:56:19;5.90;;;3.80;;
20557;SDS011;10437;48.156;11.530;2023-04-30T09:58:50;5.05;;;3.63;;
20557;SDS011;10437;48.156;11.530;2023-04-30T10:01:25;5.80;;;3.55;;
20557;SDS011;10437;48.156;11.530;2023-04-30T10:03:55;6.05;;;4.15;;
20557;SDS011;10437;48.156;11.530;2023-04-30T10:06:23;5.43;;;4.00;;
20557;SDS011;10437;48.156;11.530;2023-04-30T10:08:53;6.43;;;4.68;;
20557;SDS011;10437;48.156;11.530;2023-04-30T10:11:22;6.93;;;4.70;;
20557;SDS011;10437;48.156;11.530;2023-04-30T10:13:55;6.00;;;4.53;;
20557;SDS011;10437;48.156;11.530;2023-04-30T10:16:29;7.70;;;4.68;;
20557;SDS011;10437;48.156;11.530;2023-04-30T10:19:02;7.07;;;4.65;;
20557;SDS011;10437;48.156;11.530;2023-04-30T10:21:33;5.40;;;3.85;;
20557;SDS011;10437;48.156;11.530;2023-04-30T10:24:03;5.90;;;3.42;;
20557;SDS011;10437;48.156;11.530;2023-04-30T10:26:30;5.70;;;4.25;;
20557;SDS011;10437;48.156;11.530;2023-04-30T10:28:59;6.05;;;3.70;;
20557;SDS011;10437;48.156;11.530;2023-04-30T10:31:27;5.63;;;4.07;;
20557;SDS011;10437;48.156;11.530;2023-04-30T10:33:58;6.00;;;4.10;;
20557;SDS011;10437;48.156;11.530;2023-04-30T10:36:36;4.70;;;3.58;;
20557;SDS011;10437;48.156;11.530;2023-04-30T10:39:06;5.07;;;3.60;;
20557;SDS011;10437;48.156;11.530;2023-04-30T10:41:34;5.10;;;3.40;;
20557;SDS011;10437;48.156;11.530;2023-04-30T10:44:02;4.65;;;3.30;;
20557;SDS011;10437;48.156;11.530;2023-04-30T10:46:30;6.05;;;3.80;;
20557;SDS011;10437;48.156;11.530;2023-04-30T10:49:00;4.45;;;3.15;;
20557;SDS011;10437;48.156;11.530;2023-04-30T10:51:43;4.20;;;2.80;;
20557;SDS011;10437;48.156;11.530;2023-04-30T10:54:12;4.22;;;3.05;;
20557;SDS011;10437;48.156;11.530;2023-04-30T10:56:41;4.10;;;2.92;;
20557;SDS011;10437;48.156;11.530;2023-04-30T10:59:11;5.25;;;3.30;;
20557;SDS011;10437;48.156;11.530;2023-04-30T11:01:53;5.18;;;3.13;;
20557;SDS011;10437;48.156;11.530;2023-04-30T11:04:22;9.48;;;3.20;;
20557;SDS011;10437;48.156;11.530;2023-04-30T11:06:53;5.68;;;3.28;;
20557;SDS011;10437;48.156;11.530;2023-04-30T11:09:33;5.13;;;3.05;;
20557;SDS011;10437;48.156;11.530;2023-04-30T11:12:09;3.50;;;2.90;;
20557;SDS011;10437;48.156;11.530;2023-04-30T11:14:40;5.75;;;3.17;;
20557;SDS011;10437;48.156;11.530;2023-04-30T11:17:08;4.88;;;3.03;;
20557;SDS011;10437;48.156;11.530;2023-04-30T11:19:41;4.05;;;3.00;;
20557;SDS011;10437;48.156;11.530;2023-04-30T11:22:20;5.13;;;3.20;;
20557;SDS011;10437;48.156;11.530;2023-04-30T11:24:49;5.38;;;2.83;;
20557;SDS011;10437;48.156;11.530;2023-04-30T11:27:19;4.32;;;2.53;;
20557;SDS011;10437;48.156;11.530;2023-04-30T11:29:48;4.45;;;2.85;;
20557;SDS011;10437;48.156;11.530;2023-04-30T11:32:16;2.92;;;2.30;;
20557;SDS011;10437;48.156;11.530;2023-04-30T11:34:44;5.03;;;2.65;;
20557;SDS011;10437;48.156;11.530;2023-04-30T11:37:12;3.45;;;2.30;;
20557;SDS011;10437;48.156;11.530;2023-04-30T11:39:41;2.22;;;2.00;;
20557;SDS011;10437;48.156;11.530;2023-04-30T11:42:08;3.33;;;2.50;;
20557;SDS011;10437;48.156;11.530;2023-04-30T11:44:35;2.83;;;2.00;;
20557;SDS011;10437;48.156;11.530;2023-04-30T11:47:05;3.50;;;2.28;;
20557;SDS011;10437;48.156;11.530;2023-04-30T11:49:31;5.28;;;2.10;;
20557;SDS011;10437;48.156;11.530;2023-04-30T11:51:59;2.88;;;2.40;;
20557;SDS011;10437;48.156;11.530;2023-04-30T11:54:26;4.50;;;2.33;;
20557;SDS011;10437;48.156;11.530;2023-04-30T11:56:53;5.47;;;2.47;;
20557;SDS011;10437;48.156;11.530;2023-04-30T11:59:26;3.15;;;2.03;;
20557;SDS011;10437;48.156;11.530;2023-04-30T12:01:53;4.00;;;2.50;;
20557;SDS011;10437;48.156;11.530;2023-04-30T12:04:21;3.05;;;2.20;;
20557;SDS011;10437;48.156;11.530;2023-04-30T12:06:48;6.70;;;2.67;;
20557;SDS011;10437;48.156;11.530;2023-04-30T12:09:16;2.70;;;2.28;;
20557;SDS011;10437;48.156;11.530;2023-04-30T12:11:43;4.47;;;2.60;;
20557;SDS011;10437;48.156;11.530;2023-04-30T12:14:10;3.40;;;2.63;;
20557;SDS011;10437;48.156;11.530;2023-04-30T12:16:39;4.05;;;2.50;;
20557;SDS011;10437;48.156;11.530;2023-04-30T12:19:08;3.20;;;2.28;;
20557;SDS011;10437;48.156;11.530;2023-04-30T12:21:36;5.30;;;3.00;;
20557;SDS011;10437;48.156;11.530;2023-04-30T12:24:04;3.22;;;2.35;;
20557;SDS011;10437;48.156;11.530;2023-04-30T12:26:34;3.30;;;2.70;;
20557;SDS011;10437;48.156;11.530;2023-04-30T12:29:03;3.72;;;2.63;;
20557;SDS011;10437;48.156;11.530;2023-04-30T12:31:31;4.25;;;2.80;;
20557;SDS011;10437;48.156;11.530;2023-04-30T12:34:02;7.20;;;2.92;;
20557;SDS011;10437;48.156;11.530;2023-04-30T12:36:30;4.05;;;2.58;;
20557;SDS011;10437;48.156;11.530;2023-04-30T12:39:04;6.72;;;2.78;;
20557;SDS011;10437;48.156;11.530;2023-04-30T12:41:34;2.58;;;2.38;;
20557;SDS011;10437;48.156;11.530;2023-04-30T12:44:12;3.45;;;2.38;;
20557;SDS011;10437;48.156;11.530;2023-04-30T12:46:42;2.92;;;2.42;;
20557;SDS011;10437;48.156;11.530;2023-04-30T12:49:10;3.85;;;2.20;;
20557;SDS011;10437;48.156;11.530;2023-04-30T12:51:38;3.28;;;2.30;;
20557;SDS011;10437;48.156;11.530;2023-04-30T12:54:09;4.32;;;2.72;;
20557;SDS011;10437;48.156;11.530;2023-04-30T12:56:36;3.63;;;2.70;;
20557;SDS011;10437;48.156;11.530;2023-04-30T12:59:13;4.43;;;2.33;;
20557;SDS011;10437;48.156;11.530;2023-04-30T13:01:43;3.03;;;2.20;;
20557;SDS011;10437;48.156;11.530;2023-04-30T13:04:11;3.58;;;2.60;;
20557;SDS011;10437;48.156;11.530;2023-04-30T13:06:38;3.25;;;2.42;;
20557;SDS011;10437;48.156;11.530;2023-04-30T13:09:05;4.07;;;2.47;;
20557;SDS011;10437;48.156;11.530;2023-04-30T13:11:34;3.20;;;2.20;;
20557;SDS011;10437;48.156;11.530;2023-04-30T13:14:00;3.97;;;2.40;;
20557;SDS011;10437;48.156;11.530;2023-04-30T13:16:27;3.90;;;2.45;;
20557;SDS011;10437;48.156;11.530;2023-04-30T13:18:55;3.45;;;2.38;;
20557;SDS011;10437;48.156;11.530;2023-04-30T13:21:23;2.33;;;1.80;;
20557;SDS011;10437;48.156;11.530;2023-04-30T13:23:51;2.95;;;2.05;;
20557;SDS011;10437;48.156;11.530;2023-04-30T13:26:18;4.13;;;2.80;;
20557;SDS011;10437;48.156;11.530;2023-04-30T13:28:47;3.00;;;2.30;;
20557;SDS011;10437;48.156;11.530;2023-04-30T13:31:13;5.75;;;2.33;;
20557;SDS011;10437;48.156;11.530;2023-04-30T13:33:41;3.33;;;2.47;;
20557;SDS011;10437;48.156;11.530;2023-04-30T13:36:08;3.17;;;2.20;;
20557;SDS011;10437;48.156;11.530;2023-04-30T13:38:36;3.03;;;2.20;;
20557;SDS011;10437;48.156;11.530;2023-04-30T13:41:03;3.35;;;1.92;;
20557;SDS011;10437;48.156;11.530;2023-04-30T13:43:30;2.85;;;1.92;;
20557;SDS011;10437;48.156;11.530;2023-04-30T13:45:59;3.35;;;2.20;;
20557;SDS011;10437;48.156;11.530;2023-04-30T13:48:26;3.35;;;2.20;;
20557;SDS011;10437;48.156;11.530;2023-04-30T13:50:53;2.65;;;2.20;;
20557;SDS011;10437;48.156;11.530;2023-04-30T13:53:20;4.80;;;2.40;;
20557;SDS011;10437;48.156;11.530;2023-04-30T13:55:47;2.70;;;2.22;;
20557;SDS011;10437;48.156;11.530;2023-04-30T13:58:15;4.13;;;2.10;;
20557;SDS011;10437;48.156;11.530;2023-04-30T14:00:42;3.22;;;2.15;;
20557;SDS011;10437;48.156;11.530;2023-04-30T14:03:10;3.25;;;2.08;;
20557;SDS011;10437;48.156;11.530;2023-04-30T14:05:38;3.83;;;1.80;;
20557;SDS011;10437;48.156;11.530;2023-04-30T14:08:05;3.10;;;2.03;;
20557;SDS011;10437;48.156;11.530;2023-04-30T14:10:32;2.85;;;2.15;;
20557;SDS011;10437;48.156;11.530;2023-04-30T14:12:59;2.58;;;1.95;;
20557;SDS011;10437;48.156;11.530;2023-04-30T14:15:26;4.13;;;1.95;;
20557;SDS011;10437;48.156;11.530;2023-04-30T14:17:54;3.03;;;1.90;;
20557;SDS011;10437;48.156;11.530;2023-04-30T14:20:23;2.92;;;1.95;;
20557;SDS011;10437;48.156;11.530;2023-04-30T14:22:50;2.78;;;2.10;;
20557;SDS011;10437;48.156;11.530;2023-04-30T14:25:17;3.28;;;2.00;;
20557;SDS011;10437;48.156;11.530;2023-04-30T14:27:44;2.95;;;2.13;;
20557;SDS011;10437;48.156;11.530;2023-04-30T14:30:12;5.00;;;1.80;;
20557;SDS011;10437;48.156;11.530;2023-04-30T14:32:39;2.00;;;1.65;;
20557;SDS011;10437;48.156;11.530;2023-04-30T14:35:07;3.47;;;1.95;;
20557;SDS011;10437;48.156;11.530;2023-04-30T14:37:36;4.00;;;2.10;;
20557;SDS011;10437;48.156;11.530;2023-04-30T14:40:03;3.13;;;1.90;;
20557;SDS011;10437;48.156;11.530;2023-04-30T14:42:32;3.28;;;2.10;;